createdAt,value
2019-03-19T00:01:09.074Z,4.90
2019-03-19T00:03:37.285Z,4.92
2019-03-19T00:06:05.483Z,5.37
2019-03-19T00:08:33.688Z,5.12
2019-03-19T00:11:01.893Z,5.17
2019-03-19T00:13:30.397Z,4.83
2019-03-19T00:15:58.850Z,4.90
2019-03-19T00:18:27.055Z,4.75
2019-03-19T00:20:55.508Z,5.05
2019-03-19T00:23:23.731Z,4.28
2019-03-19T00:25:53.212Z,4.72
2019-03-19T00:28:21.523Z,4.55
2019-03-19T00:30:50.044Z,5.55
2019-03-19T00:33:18.647Z,4.65
2019-03-19T00:35:46.847Z,4.92
2019-03-19T00:38:15.062Z,4.42
2019-03-19T00:40:43.255Z,4.45
2019-03-19T00:43:11.449Z,4.72
2019-03-19T00:45:40.012Z,4.28
2019-03-19T00:48:08.210Z,4.25
2019-03-19T00:50:36.422Z,4.40
2019-03-19T00:53:04.619Z,3.95
2019-03-19T00:55:40.741Z,4.17
2019-03-19T00:58:02.762Z,3.75
2019-03-19T01:00:32.594Z,4.08
2019-03-19T01:03:01.113Z,4.15
2019-03-19T01:05:29.315Z,3.75
2019-03-19T01:07:57.870Z,4.35
2019-03-19T01:10:26.072Z,4.45
2019-03-19T01:12:54.628Z,4.22
2019-03-19T01:15:22.881Z,3.67
2019-03-19T01:17:51.485Z,3.83
2019-03-19T01:20:19.687Z,4.00
2019-03-19T01:22:47.890Z,3.92
2019-03-19T01:25:16.094Z,4.12
2019-03-19T01:27:44.300Z,4.08
2019-03-19T01:30:16.274Z,3.98
2019-03-19T01:35:12.072Z,3.50
2019-03-19T01:37:40.271Z,3.77
2019-03-19T01:40:10.785Z,3.37
2019-03-19T01:42:38.979Z,3.33
2019-03-19T01:45:14.487Z,3.67
2019-03-19T01:47:42.694Z,3.72
2019-03-19T01:50:15.109Z,3.17
2019-03-19T01:52:43.314Z,3.55
2019-03-19T01:55:12.561Z,3.58
2019-03-19T01:57:40.774Z,3.60
2019-03-19T02:00:16.931Z,3.50
2019-03-19T02:02:45.126Z,3.10
2019-03-19T02:05:13.344Z,3.50
2019-03-19T02:07:41.826Z,2.92
2019-03-19T02:10:14.029Z,3.05
2019-03-19T02:12:42.575Z,3.52
2019-03-19T02:15:13.143Z,3.15
2019-03-19T02:17:41.331Z,3.60
2019-03-19T02:20:19.306Z,3.00
2019-03-19T02:22:47.513Z,3.22
2019-03-19T02:25:15.717Z,3.37
2019-03-19T02:27:43.920Z,2.92
2019-03-19T02:30:17.879Z,3.15
2019-03-19T02:32:46.140Z,3.27
2019-03-19T02:35:14.574Z,2.72
2019-03-19T02:37:42.805Z,2.90
2019-03-19T02:40:13.610Z,3.00
2019-03-19T02:42:41.823Z,2.90
2019-03-19T02:45:11.578Z,3.12
2019-03-19T02:47:39.793Z,2.92
2019-03-19T02:50:17.847Z,2.70
2019-03-19T02:52:46.048Z,2.70
2019-03-19T02:55:14.279Z,2.50
2019-03-19T02:57:42.447Z,2.80
2019-03-19T03:00:13.019Z,3.08
2019-03-19T03:02:41.288Z,2.70
2019-03-19T03:05:17.849Z,2.47
2019-03-19T03:07:46.062Z,2.55
2019-03-19T03:10:14.828Z,3.05
2019-03-19T03:12:43.022Z,2.40
2019-03-19T03:15:14.899Z,2.77
2019-03-19T03:17:43.081Z,2.58
2019-03-19T03:20:15.342Z,2.58
2019-03-19T03:22:43.545Z,2.77
2019-03-19T03:25:12.901Z,2.50
2019-03-19T03:27:41.160Z,2.62
2019-03-19T03:30:14.535Z,2.27
2019-03-19T03:32:43.025Z,2.87
2019-03-19T03:35:11.709Z,2.72
2019-03-19T03:37:39.904Z,2.60
2019-03-19T03:40:15.620Z,2.90
2019-03-19T03:42:43.829Z,2.67
2019-03-19T03:45:16.029Z,2.50
2019-03-19T03:47:44.240Z,2.55
2019-03-19T03:50:16.019Z,2.87
2019-03-19T03:52:44.201Z,2.47
2019-03-19T03:55:13.446Z,2.45
2019-03-19T03:57:41.958Z,2.80
2019-03-19T04:00:20.674Z,2.42
2019-03-19T04:02:48.863Z,2.30
2019-03-19T04:05:17.087Z,2.40
2019-03-19T04:07:45.284Z,2.58
2019-03-19T04:10:14.902Z,2.35
2019-03-19T04:12:43.101Z,2.67
2019-03-19T04:15:16.087Z,2.35
2019-03-19T04:17:44.644Z,2.20
2019-03-19T04:20:13.872Z,2.10
2019-03-19T04:22:42.447Z,2.75
2019-03-19T04:25:11.032Z,2.55
2019-03-19T04:27:40.702Z,2.10
2019-03-19T04:30:17.730Z,2.35
2019-03-19T04:32:45.929Z,2.40
2019-03-19T04:35:14.134Z,2.45
2019-03-19T04:37:42.337Z,2.40
2019-03-19T04:40:11.674Z,2.10
2019-03-19T04:42:39.875Z,2.35
2019-03-19T04:45:10.346Z,2.20
2019-03-19T04:47:38.551Z,1.90
2019-03-19T04:50:10.303Z,2.10
2019-03-19T04:52:38.513Z,2.35
2019-03-19T04:55:09.097Z,2.15
2019-03-19T04:57:37.383Z,2.17
2019-03-19T05:00:10.638Z,2.62
2019-03-19T05:02:38.841Z,2.10
2019-03-19T05:05:10.251Z,2.30
2019-03-19T05:07:38.473Z,2.40
2019-03-19T05:10:11.946Z,2.40
2019-03-19T05:12:40.146Z,2.40
2019-03-19T05:15:08.784Z,2.35
2019-03-19T05:17:37.266Z,2.33
2019-03-19T05:20:09.331Z,2.20
2019-03-19T05:22:37.813Z,2.20
2019-03-19T05:25:07.048Z,2.27
2019-03-19T05:27:37.746Z,1.90
2019-03-19T05:30:08.733Z,2.27
2019-03-19T05:32:37.261Z,2.30
2019-03-19T05:35:07.599Z,2.10
2019-03-19T05:37:36.065Z,2.50
2019-03-19T05:40:07.092Z,2.12
2019-03-19T05:42:35.297Z,1.80
2019-03-19T05:45:03.872Z,2.00
2019-03-19T05:47:36.992Z,2.10
2019-03-19T05:50:02.261Z,2.35
2019-03-19T05:52:30.455Z,1.90
2019-03-19T05:54:58.650Z,2.12
2019-03-19T05:57:26.858Z,2.20
2019-03-19T05:59:55.087Z,2.70
2019-03-19T06:02:23.634Z,2.87
2019-03-19T06:04:51.837Z,2.80
2019-03-19T06:07:20.034Z,2.55
2019-03-19T06:09:48.242Z,2.70
2019-03-19T06:12:16.441Z,2.75
2019-03-19T06:14:44.641Z,3.92
2019-03-19T06:17:12.864Z,20.32
2019-03-19T06:19:41.058Z,45.43
2019-03-19T06:22:09.548Z,41.95
2019-03-19T06:24:37.751Z,42.90
2019-03-19T06:27:05.968Z,43.00
2019-03-19T06:29:34.483Z,40.20
2019-03-19T06:32:02.704Z,39.78
2019-03-19T06:34:30.894Z,37.90
2019-03-19T06:36:59.116Z,35.17
2019-03-19T06:39:27.330Z,36.05
2019-03-19T06:41:55.540Z,32.63
2019-03-19T06:44:26.421Z,32.10
2019-03-19T06:46:54.644Z,30.92
2019-03-19T06:49:23.146Z,29.52
2019-03-19T06:51:51.456Z,29.10
2019-03-19T06:54:19.665Z,27.93
2019-03-19T06:56:47.885Z,27.22
2019-03-19T06:59:16.093Z,25.92
2019-03-19T07:01:44.300Z,25.52
2019-03-19T07:04:12.514Z,24.57
2019-03-19T07:06:40.721Z,23.42
2019-03-19T07:09:09.241Z,22.50
2019-03-19T07:11:37.448Z,22.13
2019-03-19T07:14:06.001Z,21.57
2019-03-19T07:16:34.208Z,20.62
2019-03-19T07:19:02.462Z,20.95
2019-03-19T07:21:30.656Z,20.25
2019-03-19T07:23:58.941Z,18.80
2019-03-19T07:26:27.481Z,18.10
2019-03-19T07:28:55.693Z,18.12
2019-03-19T07:31:30.742Z,18.55
2019-03-19T07:33:54.156Z,16.85
2019-03-19T07:36:22.397Z,16.55
2019-03-19T07:38:50.607Z,17.10
2019-03-19T07:41:18.809Z,15.58
2019-03-19T07:43:47.022Z,15.58
2019-03-19T07:46:15.532Z,17.27
2019-03-19T07:48:43.746Z,17.98
2019-03-19T07:51:11.945Z,17.32
2019-03-19T07:53:40.207Z,17.52
2019-03-19T07:56:08.736Z,15.70
2019-03-19T07:58:45.168Z,17.17
2019-03-19T08:01:06.885Z,16.25
2019-03-19T08:03:35.097Z,16.35
2019-03-19T08:06:03.588Z,16.10
2019-03-19T08:08:32.067Z,15.50
2019-03-19T08:11:00.277Z,16.40
2019-03-19T08:13:28.484Z,14.93
2019-03-19T08:15:56.691Z,14.90
2019-03-19T08:18:24.911Z,13.45
2019-03-19T08:20:53.445Z,13.98
2019-03-19T08:23:21.661Z,13.62
2019-03-19T08:25:50.204Z,12.98
2019-03-19T08:28:18.421Z,13.25
2019-03-19T08:30:46.629Z,13.72
2019-03-19T08:33:14.837Z,13.38
2019-03-19T08:35:43.047Z,12.93
2019-03-19T08:38:11.584Z,12.60
2019-03-19T08:40:40.062Z,12.70
2019-03-19T08:43:08.282Z,11.80
2019-03-19T08:45:36.919Z,12.05
2019-03-19T08:48:05.406Z,12.00
2019-03-19T08:50:33.612Z,11.60
2019-03-19T08:53:02.164Z,11.08
2019-03-19T08:55:30.371Z,11.40
2019-03-19T08:57:58.918Z,10.88
2019-03-19T09:00:28.805Z,11.00
2019-03-19T09:02:57.308Z,10.53
2019-03-19T09:05:25.518Z,10.25
2019-03-19T09:07:53.716Z,10.32
2019-03-19T09:10:21.924Z,9.98
2019-03-19T09:12:50.416Z,10.20
2019-03-19T09:15:23.808Z,10.48
2019-03-19T09:17:52.289Z,10.90
2019-03-19T09:20:20.873Z,9.75
2019-03-19T09:22:49.076Z,9.30
2019-03-19T09:25:17.633Z,9.15
2019-03-19T09:27:46.078Z,9.30
2019-03-19T09:30:18.480Z,8.78
2019-03-19T09:32:47.171Z,8.70
2019-03-19T09:35:15.394Z,8.60
2019-03-19T09:37:44.903Z,8.80
2019-03-19T09:40:16.451Z,8.38
2019-03-19T09:42:44.985Z,8.35
2019-03-19T09:45:14.340Z,8.28
2019-03-19T09:47:42.550Z,7.75
2019-03-19T09:50:21.791Z,8.10
2019-03-19T09:52:49.992Z,8.18
2019-03-19T09:55:18.443Z,6.80
2019-03-19T09:57:46.649Z,6.62
2019-03-19T10:00:21.556Z,7.35
2019-03-19T10:02:50.132Z,6.90
2019-03-19T10:05:18.439Z,6.83
2019-03-19T10:07:46.723Z,6.45
2019-03-19T10:10:22.986Z,6.40
2019-03-19T10:12:51.407Z,6.12
2019-03-19T10:15:19.623Z,6.45
2019-03-19T10:17:49.467Z,5.83
2019-03-19T10:20:19.047Z,5.67
2019-03-19T10:22:47.319Z,5.62
2019-03-19T10:25:18.748Z,5.75
2019-03-19T10:27:47.235Z,5.62
2019-03-19T10:30:18.758Z,5.70
2019-03-19T10:32:47.025Z,5.62
2019-03-19T10:35:15.300Z,5.17
2019-03-19T10:37:43.500Z,5.15
2019-03-19T10:40:16.825Z,5.15
2019-03-19T10:42:45.031Z,5.10
2019-03-19T10:45:17.345Z,5.25
2019-03-19T10:47:45.831Z,5.00
2019-03-19T10:50:25.380Z,5.08
2019-03-19T10:52:53.848Z,4.92
2019-03-19T10:55:22.056Z,4.75
2019-03-19T10:57:50.259Z,5.10
2019-03-19T11:00:23.662Z,4.67
2019-03-19T11:02:51.862Z,4.50
2019-03-19T11:05:20.807Z,4.40
2019-03-19T11:07:49.441Z,4.60
2019-03-19T11:10:18.383Z,4.12
2019-03-19T11:12:46.579Z,4.10
2019-03-19T11:15:21.736Z,4.20
2019-03-19T11:17:50.231Z,3.90
2019-03-19T11:20:19.278Z,3.87
2019-03-19T11:22:47.475Z,3.85
2019-03-19T11:25:18.982Z,4.30
2019-03-19T11:27:47.195Z,4.15
2019-03-19T11:30:18.655Z,4.03
2019-03-19T11:32:46.864Z,3.40
2019-03-19T11:35:15.328Z,3.87
2019-03-19T11:37:43.524Z,3.80
2019-03-19T11:40:13.881Z,3.67
2019-03-19T11:42:42.078Z,3.15
2019-03-19T11:45:13.857Z,2.87
2019-03-19T11:47:42.059Z,3.20
2019-03-19T11:50:23.973Z,3.33
2019-03-19T11:52:52.507Z,3.08
2019-03-19T11:55:21.091Z,2.95
2019-03-19T11:57:49.296Z,3.20
2019-03-19T12:00:33.697Z,3.25
2019-03-19T12:03:12.322Z,2.77
2019-03-19T12:05:32.429Z,2.98
2019-03-19T12:08:00.905Z,3.45
2019-03-19T12:10:29.117Z,2.83
2019-03-19T12:12:57.314Z,3.22
2019-03-19T12:15:25.759Z,2.95
2019-03-19T12:17:53.957Z,2.98
2019-03-19T12:20:22.486Z,2.67
2019-03-19T12:22:51.042Z,2.33
2019-03-19T12:25:19.186Z,2.60
2019-03-19T12:27:47.730Z,2.75
2019-03-19T12:30:22.620Z,2.42
2019-03-19T12:32:50.217Z,2.62
2019-03-19T12:35:19.305Z,2.70
2019-03-19T12:37:47.507Z,2.50
2019-03-19T12:40:22.829Z,2.40
2019-03-19T12:42:51.027Z,2.80
2019-03-19T12:45:20.278Z,2.40
2019-03-19T12:47:48.477Z,2.45
2019-03-19T12:50:18.435Z,2.52
2019-03-19T12:52:46.972Z,2.80
2019-03-19T12:55:15.450Z,2.90
2019-03-19T12:57:43.657Z,2.37
2019-03-19T13:00:34.341Z,2.17
2019-03-19T13:02:58.301Z,2.30
2019-03-19T13:05:26.779Z,2.40
2019-03-19T13:07:54.983Z,2.40
2019-03-19T13:10:24.278Z,2.22
2019-03-19T13:12:52.474Z,2.17
2019-03-19T13:15:21.023Z,2.12
2019-03-19T13:17:49.222Z,1.95
2019-03-19T13:20:18.385Z,2.30
2019-03-19T13:22:46.645Z,2.33
2019-03-19T13:25:22.632Z,1.95
2019-03-19T13:27:50.816Z,2.52
2019-03-19T13:30:21.617Z,2.40
2019-03-19T13:32:50.122Z,2.30
2019-03-19T13:35:18.327Z,2.08
2019-03-19T13:37:46.535Z,2.02
2019-03-19T13:40:16.608Z,2.00
2019-03-19T13:42:45.161Z,2.20
2019-03-19T13:45:19.434Z,2.00
2019-03-19T13:47:47.954Z,2.00
2019-03-19T13:50:18.157Z,2.00
2019-03-19T13:52:46.357Z,2.25
2019-03-19T13:55:17.700Z,2.27
2019-03-19T13:57:46.193Z,1.72
2019-03-19T14:00:16.489Z,2.15
2019-03-19T14:02:44.694Z,2.37
2019-03-19T14:05:13.851Z,3.02
2019-03-19T14:07:42.054Z,2.98
2019-03-19T14:10:15.150Z,3.15
2019-03-19T14:12:43.352Z,2.70
2019-03-19T14:15:15.218Z,2.85
2019-03-19T14:20:13.716Z,2.50
2019-03-19T14:22:41.929Z,2.70
2019-03-19T14:25:11.267Z,2.45
2019-03-19T14:27:39.482Z,2.70
2019-03-19T14:30:19.467Z,2.83
2019-03-19T14:32:47.689Z,2.90
2019-03-19T14:35:16.225Z,3.20
2019-03-19T14:37:44.710Z,3.58
2019-03-19T14:40:26.644Z,3.67
2019-03-19T14:42:54.855Z,3.00
2019-03-19T14:45:23.058Z,2.72
2019-03-19T14:47:51.258Z,3.33
2019-03-19T14:50:24.626Z,3.22
2019-03-19T14:52:52.832Z,3.08
2019-03-19T14:55:21.100Z,3.45
2019-03-19T14:57:50.955Z,2.80
2019-03-19T15:00:21.563Z,2.55
2019-03-19T15:02:49.779Z,3.40
2019-03-19T15:05:17.987Z,3.10
2019-03-19T15:07:46.277Z,2.47
2019-03-19T15:10:17.744Z,3.10
2019-03-19T15:12:45.926Z,2.52
2019-03-19T15:15:18.045Z,3.00
2019-03-19T15:17:46.611Z,2.45
2019-03-19T15:20:28.557Z,4.30
2019-03-19T15:22:56.777Z,2.35
2019-03-19T15:25:24.980Z,3.00
2019-03-19T15:27:53.467Z,2.60
2019-03-19T15:30:21.939Z,3.22
2019-03-19T15:32:50.522Z,2.85
2019-03-19T15:35:18.706Z,2.35
2019-03-19T15:37:47.255Z,2.60
2019-03-19T15:40:17.726Z,2.62
2019-03-19T15:42:46.406Z,2.62
2019-03-19T15:45:20.648Z,2.42
2019-03-19T15:47:48.868Z,2.45
2019-03-19T15:50:17.145Z,3.22
2019-03-19T15:52:45.722Z,2.40
2019-03-19T15:55:17.036Z,2.77
2019-03-19T15:57:45.551Z,2.37
2019-03-19T16:00:21.500Z,2.60
2019-03-19T16:02:49.706Z,2.20
2019-03-19T16:05:18.268Z,3.70
2019-03-19T16:07:46.508Z,2.50
2019-03-19T16:10:16.800Z,2.33
2019-03-19T16:12:45.016Z,1.90
2019-03-19T16:15:16.896Z,2.17
2019-03-19T16:17:45.114Z,2.52
2019-03-19T16:20:16.112Z,2.60
2019-03-19T16:22:44.337Z,1.80
2019-03-19T16:25:12.896Z,2.08
2019-03-19T16:27:41.108Z,2.42
2019-03-19T16:30:17.508Z,2.00
2019-03-19T16:32:45.723Z,2.05
2019-03-19T16:35:14.376Z,2.50
2019-03-19T16:37:43.871Z,2.72
2019-03-19T16:40:21.866Z,2.42
2019-03-19T16:42:50.085Z,5.60
2019-03-19T16:45:18.750Z,2.58
2019-03-19T16:47:47.076Z,2.85
2019-03-19T16:50:20.075Z,4.80
2019-03-19T16:52:48.698Z,2.50
2019-03-19T16:55:18.415Z,2.00
2019-03-19T16:57:46.875Z,2.10
2019-03-19T17:00:16.931Z,2.30
2019-03-19T17:02:45.136Z,2.35
2019-03-19T17:05:14.309Z,2.12
2019-03-19T17:07:42.559Z,2.35
2019-03-19T17:10:13.996Z,2.50
2019-03-19T17:12:42.208Z,2.25
2019-03-19T17:15:12.816Z,2.10
2019-03-19T17:17:41.027Z,1.95
2019-03-19T17:20:11.829Z,1.90
2019-03-19T17:22:40.037Z,2.05
2019-03-19T17:25:24.382Z,2.05
2019-03-19T17:27:52.866Z,1.90
2019-03-19T17:30:32.274Z,2.27
2019-03-19T17:33:03.699Z,2.22
2019-03-19T17:35:31.899Z,2.55
2019-03-19T17:38:00.106Z,2.30
2019-03-19T17:40:28.626Z,2.12
2019-03-19T17:42:57.107Z,2.70
2019-03-19T17:45:25.416Z,3.15
2019-03-19T17:47:53.969Z,2.02
2019-03-19T17:50:26.778Z,2.00
2019-03-19T17:53:01.107Z,2.20
2019-03-19T17:55:29.573Z,1.80
2019-03-19T17:57:57.783Z,2.60
2019-03-19T18:00:27.623Z,2.22
2019-03-19T18:02:55.962Z,2.30
2019-03-19T18:05:24.214Z,2.35
2019-03-19T18:07:52.776Z,2.90
2019-03-19T18:10:21.092Z,16.35
2019-03-19T18:12:49.632Z,3.62
2019-03-19T18:15:19.234Z,3.10
2019-03-19T18:17:47.439Z,3.35
2019-03-19T18:20:16.194Z,3.30
2019-03-19T18:22:44.678Z,3.85
2019-03-19T18:25:16.483Z,3.85
2019-03-19T18:27:45.025Z,3.87
2019-03-19T18:30:20.365Z,4.20
2019-03-19T18:32:48.569Z,4.22
2019-03-19T18:35:17.121Z,5.50
2019-03-19T18:37:45.322Z,6.30
2019-03-19T18:40:14.582Z,7.05
2019-03-19T18:42:43.075Z,6.67
2019-03-19T18:45:18.417Z,6.95
2019-03-19T18:47:46.622Z,6.80
2019-03-19T18:50:22.377Z,7.60
2019-03-19T18:52:50.837Z,6.40
2019-03-19T18:55:19.955Z,6.10
2019-03-19T18:57:48.149Z,6.50
2019-03-19T19:00:18.475Z,5.90
2019-03-19T19:02:50.235Z,6.37
2019-03-19T19:05:20.475Z,6.08
2019-03-19T19:07:48.690Z,5.72
2019-03-19T19:10:17.633Z,6.47
2019-03-19T19:12:45.844Z,6.12
2019-03-19T19:15:18.719Z,5.97
2019-03-19T19:17:46.976Z,6.45
2019-03-19T19:20:16.017Z,7.30
2019-03-19T19:22:44.571Z,7.87
2019-03-19T19:25:17.177Z,7.90
2019-03-19T19:27:45.740Z,6.92
2019-03-19T19:30:16.745Z,8.68
2019-03-19T19:32:44.962Z,8.75
2019-03-19T19:35:13.167Z,7.70
2019-03-19T19:37:41.395Z,8.40
2019-03-19T19:40:18.420Z,9.95
2019-03-19T19:42:46.960Z,11.57
2019-03-19T19:45:18.658Z,11.63
2019-03-19T19:47:46.878Z,11.25
2019-03-19T19:50:17.732Z,11.75
2019-03-19T19:52:46.308Z,11.48
2019-03-19T19:55:14.895Z,10.45
2019-03-19T19:57:43.691Z,10.35
2019-03-19T20:00:17.589Z,9.90
2019-03-19T20:02:45.865Z,9.68
2019-03-19T20:05:14.071Z,8.98
2019-03-19T20:07:42.622Z,9.45
2019-03-19T20:10:19.601Z,9.53
2019-03-19T20:12:48.080Z,8.83
2019-03-19T20:15:16.291Z,8.48
2019-03-19T20:17:44.556Z,8.18
2019-03-19T20:20:17.878Z,8.25
2019-03-19T20:22:46.083Z,8.40
2019-03-19T20:25:14.576Z,9.60
2019-03-19T20:27:43.264Z,9.60
2019-03-19T20:30:16.243Z,9.13
2019-03-19T20:32:44.743Z,12.10
2019-03-19T20:35:13.058Z,14.28
2019-03-19T20:37:41.269Z,13.93
2019-03-19T20:40:14.477Z,14.53
2019-03-19T20:42:42.682Z,14.40
2019-03-19T20:45:13.485Z,13.60
2019-03-19T20:47:41.688Z,13.22
2019-03-19T20:50:15.773Z,13.55
2019-03-19T20:52:43.984Z,12.85
2019-03-19T20:55:12.234Z,12.63
2019-03-19T20:57:40.409Z,12.70
2019-03-19T21:00:12.149Z,10.93
2019-03-19T21:02:40.364Z,11.60
2019-03-19T21:05:08.581Z,13.32
2019-03-19T21:07:37.089Z,14.85
2019-03-19T21:10:11.114Z,16.05
2019-03-19T21:12:39.393Z,16.62
2019-03-19T21:15:11.136Z,16.30
2019-03-19T21:17:39.348Z,17.60
2019-03-19T21:20:07.644Z,17.70
2019-03-19T21:22:35.849Z,16.77
2019-03-19T21:25:05.192Z,16.82
2019-03-19T21:27:33.737Z,16.32
2019-03-19T21:30:02.326Z,17.23
2019-03-19T21:32:30.683Z,16.10
2019-03-19T21:34:59.178Z,16.67
2019-03-19T21:37:27.784Z,15.40
2019-03-19T21:39:56.052Z,15.63
2019-03-19T21:42:24.295Z,15.00
2019-03-19T21:44:52.583Z,15.03
2019-03-19T21:47:21.170Z,14.65
2019-03-19T21:49:49.353Z,14.95
2019-03-19T21:52:17.934Z,14.20
2019-03-19T21:54:46.424Z,14.50
2019-03-19T21:57:14.634Z,14.20
2019-03-19T21:59:43.746Z,13.10
2019-03-19T22:02:11.989Z,13.15
2019-03-19T22:04:41.215Z,12.75
2019-03-19T22:07:09.587Z,13.25
2019-03-19T22:09:37.807Z,13.18
2019-03-19T22:12:06.061Z,14.18
2019-03-19T22:14:34.312Z,17.60
2019-03-19T22:17:02.860Z,18.20
2019-03-19T22:19:32.680Z,17.27
2019-03-19T22:22:01.233Z,15.65
2019-03-19T22:24:29.445Z,15.25
2019-03-19T22:26:57.683Z,15.28
2019-03-19T22:29:25.903Z,13.83
2019-03-19T22:31:54.132Z,15.65
2019-03-19T22:34:23.162Z,14.95
2019-03-19T22:36:51.378Z,14.50
2019-03-19T22:39:19.590Z,13.83
2019-03-19T22:41:47.921Z,13.15
2019-03-19T22:44:16.155Z,13.05
2019-03-19T22:46:44.379Z,12.75
2019-03-19T22:49:12.585Z,13.25
2019-03-19T22:51:41.160Z,12.40
2019-03-19T22:54:09.379Z,12.07
2019-03-19T22:56:37.945Z,12.07
2019-03-19T22:59:06.244Z,11.60
2019-03-19T23:01:34.474Z,11.30
2019-03-19T23:04:02.683Z,11.18
2019-03-19T23:06:30.927Z,11.08
2019-03-19T23:08:59.149Z,10.40
2019-03-19T23:11:27.682Z,10.43
2019-03-19T23:13:55.893Z,10.20
2019-03-19T23:16:24.109Z,10.35
2019-03-19T23:18:52.317Z,9.78
2019-03-19T23:21:21.079Z,9.58
2019-03-19T23:23:49.571Z,8.98
2019-03-19T23:26:17.776Z,9.28
2019-03-19T23:28:45.977Z,9.48
2019-03-19T23:31:14.495Z,9.48
2019-03-19T23:33:43.185Z,8.90
2019-03-19T23:36:11.665Z,8.33
2019-03-19T23:38:40.200Z,7.92
2019-03-19T23:41:08.398Z,7.83
2019-03-19T23:43:36.904Z,8.00
2019-03-19T23:46:05.107Z,8.20
2019-03-19T23:48:33.663Z,7.67
2019-03-19T23:51:02.349Z,7.53
2019-03-19T23:53:30.819Z,6.78
2019-03-19T23:55:59.022Z,6.67
2019-03-19T23:58:27.239Z,6.90
